sensor_id;sensor_type;location;lat;lon;timestamp;pressure;altitude;pressure_sealevel;temperature
64960;BMP180;51487;52.266;10.542;2022-08-01T00:01:25;100391.00;;;18.20
64960;BMP180;51487;52.266;10.542;2022-08-01T00:03:50;100393.00;;;18.30
64960;BMP180;51487;52.266;10.542;2022-08-01T00:06:16;100399.00;;;18.30
64960;BMP180;51487;52.266;10.542;2022-08-01T00:08:42;100398.00;;;18.30
64960;BMP180;51487;52.266;10.542;2022-08-01T00:11:07;100400.00;;;18.30
64960;BMP180;51487;52.266;10.542;2022-08-01T00:13:34;100398.00;;;18.30
64960;BMP180;51487;52.266;10.542;2022-08-01T00:16:00;100405.00;;;18.20
64960;BMP180;51487;52.266;10.542;2022-08-01T00:18:26;100394.00;;;18.20
64960;BMP180;51487;52.266;10.542;2022-08-01T00:20:51;100393.00;;;18.30
64960;BMP180;51487;52.266;10.542;2022-08-01T00:23:17;100392.00;;;18.30
64960;BMP180;51487;52.266;10.542;2022-08-01T00:25:42;100391.00;;;18.30
64960;BMP180;51487;52.266;10.542;2022-08-01T00:28:08;100389.00;;;18.30
64960;BMP180;51487;52.266;10.542;2022-08-01T00:30:34;100392.00;;;18.30
64960;BMP180;51487;52.266;10.542;2022-08-01T00:33:01;100391.00;;;18.30
64960;BMP180;51487;52.266;10.542;2022-08-01T00:35:27;100390.00;;;18.30
64960;BMP180;51487;52.266;10.542;2022-08-01T00:37:53;100385.00;;;18.40
64960;BMP180;51487;52.266;10.542;2022-08-01T00:40:18;100382.00;;;18.40
64960;BMP180;51487;52.266;10.542;2022-08-01T00:42:44;100382.00;;;18.50
64960;BMP180;51487;52.266;10.542;2022-08-01T00:45:11;100381.00;;;18.50
64960;BMP180;51487;52.266;10.542;2022-08-01T00:47:37;100381.00;;;18.60
64960;BMP180;51487;52.266;10.542;2022-08-01T00:50:04;100381.00;;;18.50
64960;BMP180;51487;52.266;10.542;2022-08-01T00:52:30;100380.00;;;18.60
64960;BMP180;51487;52.266;10.542;2022-08-01T00:54:57;100380.00;;;18.60
64960;BMP180;51487;52.266;10.542;2022-08-01T00:57:23;100378.00;;;18.70
64960;BMP180;51487;52.266;10.542;2022-08-01T00:59:48;100378.00;;;18.70
64960;BMP180;51487;52.266;10.542;2022-08-01T01:02:14;100372.00;;;18.70
64960;BMP180;51487;52.266;10.542;2022-08-01T01:04:41;100373.00;;;18.70
64960;BMP180;51487;52.266;10.542;2022-08-01T01:07:17;100377.00;;;18.60
64960;BMP180;51487;52.266;10.542;2022-08-01T01:13:02;100378.00;;;18.60
64960;BMP180;51487;52.266;10.542;2022-08-01T01:15:41;100366.00;;;18.60
64960;BMP180;51487;52.266;10.542;2022-08-01T01:18:15;100371.00;;;18.60
64960;BMP180;51487;52.266;10.542;2022-08-01T01:29:56;100371.00;;;18.70
64960;BMP180;51487;52.266;10.542;2022-08-01T01:32:30;100370.00;;;18.70
64960;BMP180;51487;52.266;10.542;2022-08-01T01:35:00;100373.00;;;18.70
64960;BMP180;51487;52.266;10.542;2022-08-01T01:37:32;100366.00;;;18.70
64960;BMP180;51487;52.266;10.542;2022-08-01T01:40:00;100367.00;;;18.60
64960;BMP180;51487;52.266;10.542;2022-08-01T01:42:30;100372.00;;;18.60
64960;BMP180;51487;52.266;10.542;2022-08-01T01:44:58;100369.00;;;18.60
64960;BMP180;51487;52.266;10.542;2022-08-01T01:47:25;100365.00;;;18.60
64960;BMP180;51487;52.266;10.542;2022-08-01T01:49:54;100367.00;;;18.50
64960;BMP180;51487;52.266;10.542;2022-08-01T01:52:22;100366.00;;;18.50
64960;BMP180;51487;52.266;10.542;2022-08-01T01:54:51;100366.00;;;18.60
64960;BMP180;51487;52.266;10.542;2022-08-01T01:57:19;100366.00;;;18.50
64960;BMP180;51487;52.266;10.542;2022-08-01T01:59:46;100367.00;;;18.50
64960;BMP180;51487;52.266;10.542;2022-08-01T02:02:14;100373.00;;;18.40
64960;BMP180;51487;52.266;10.542;2022-08-01T02:04:43;100355.00;;;18.50
64960;BMP180;51487;52.266;10.542;2022-08-01T02:07:24;100366.00;;;18.50
64960;BMP180;51487;52.266;10.542;2022-08-01T02:09:52;100367.00;;;18.50
64960;BMP180;51487;52.266;10.542;2022-08-01T02:12:20;100362.00;;;18.50
64960;BMP180;51487;52.266;10.542;2022-08-01T02:14:48;100366.00;;;18.40
64960;BMP180;51487;52.266;10.542;2022-08-01T02:17:19;100365.00;;;18.40
64960;BMP180;51487;52.266;10.542;2022-08-01T02:19:46;100371.00;;;18.50
64960;BMP180;51487;52.266;10.542;2022-08-01T02:22:28;100359.00;;;18.50
64960;BMP180;51487;52.266;10.542;2022-08-01T02:25:03;100356.00;;;18.50
64960;BMP180;51487;52.266;10.542;2022-08-01T02:27:52;100362.00;;;18.50
64960;BMP180;51487;52.266;10.542;2022-08-01T02:30:26;100358.00;;;18.60
64960;BMP180;51487;52.266;10.542;2022-08-01T02:33:21;100359.00;;;18.60
64960;BMP180;51487;52.266;10.542;2022-08-01T02:35:56;100358.00;;;18.60
64960;BMP180;51487;52.266;10.542;2022-08-01T02:38:26;100359.00;;;18.60
64960;BMP180;51487;52.266;10.542;2022-08-01T02:40:55;100353.00;;;18.60
64960;BMP180;51487;52.266;10.542;2022-08-01T02:43:26;100352.00;;;18.50
64960;BMP180;51487;52.266;10.542;2022-08-01T02:46:00;100357.00;;;18.50
64960;BMP180;51487;52.266;10.542;2022-08-01T02:48:27;100359.00;;;18.60
64960;BMP180;51487;52.266;10.542;2022-08-01T02:50:58;100359.00;;;18.60
64960;BMP180;51487;52.266;10.542;2022-08-01T02:53:27;100359.00;;;18.50
64960;BMP180;51487;52.266;10.542;2022-08-01T02:55:57;100360.00;;;18.50
64960;BMP180;51487;52.266;10.542;2022-08-01T02:58:25;100360.00;;;18.50
64960;BMP180;51487;52.266;10.542;2022-08-01T03:00:52;100372.00;;;18.50
64960;BMP180;51487;52.266;10.542;2022-08-01T03:03:18;100369.00;;;18.50
64960;BMP180;51487;52.266;10.542;2022-08-01T03:05:45;100363.00;;;18.50
64960;BMP180;51487;52.266;10.542;2022-08-01T03:08:15;100365.00;;;18.50
64960;BMP180;51487;52.266;10.542;2022-08-01T03:10:43;100375.00;;;18.50
64960;BMP180;51487;52.266;10.542;2022-08-01T03:13:11;100371.00;;;18.40
64960;BMP180;51487;52.266;10.542;2022-08-01T03:15:41;100370.00;;;18.40
64960;BMP180;51487;52.266;10.542;2022-08-01T03:18:10;100375.00;;;18.40
64960;BMP180;51487;52.266;10.542;2022-08-01T03:20:37;100378.00;;;18.40
64960;BMP180;51487;52.266;10.542;2022-08-01T03:23:05;100380.00;;;18.30
64960;BMP180;51487;52.266;10.542;2022-08-01T03:25:36;100385.00;;;18.40
64960;BMP180;51487;52.266;10.542;2022-08-01T03:28:05;100388.00;;;18.40
64960;BMP180;51487;52.266;10.542;2022-08-01T03:30:33;100391.00;;;18.40
64960;BMP180;51487;52.266;10.542;2022-08-01T03:33:02;100402.00;;;18.20
64960;BMP180;51487;52.266;10.542;2022-08-01T03:35:30;100404.00;;;18.30
64960;BMP180;51487;52.266;10.542;2022-08-01T03:38:00;100413.00;;;18.10
64960;BMP180;51487;52.266;10.542;2022-08-01T03:40:52;100403.00;;;18.10
64960;BMP180;51487;52.266;10.542;2022-08-01T03:43:32;100403.00;;;18.10
64960;BMP180;51487;52.266;10.542;2022-08-01T03:46:07;100400.00;;;18.20
64960;BMP180;51487;52.266;10.542;2022-08-01T03:48:44;100403.00;;;18.00
64960;BMP180;51487;52.266;10.542;2022-08-01T03:51:13;100401.00;;;18.10
64960;BMP180;51487;52.266;10.542;2022-08-01T03:53:42;100401.00;;;18.00
64960;BMP180;51487;52.266;10.542;2022-08-01T03:56:11;100405.00;;;18.00
64960;BMP180;51487;52.266;10.542;2022-08-01T03:58:40;100411.00;;;17.90
64960;BMP180;51487;52.266;10.542;2022-08-01T04:01:07;100415.00;;;17.90
64960;BMP180;51487;52.266;10.542;2022-08-01T04:03:34;100402.00;;;17.90
64960;BMP180;51487;52.266;10.542;2022-08-01T04:06:06;100411.00;;;17.90
64960;BMP180;51487;52.266;10.542;2022-08-01T04:08:37;100420.00;;;17.90
64960;BMP180;51487;52.266;10.542;2022-08-01T04:11:04;100414.00;;;17.80
64960;BMP180;51487;52.266;10.542;2022-08-01T04:13:31;100418.00;;;17.90
64960;BMP180;51487;52.266;10.542;2022-08-01T04:15:57;100424.00;;;17.90
64960;BMP180;51487;52.266;10.542;2022-08-01T04:18:23;100425.00;;;17.90
64960;BMP180;51487;52.266;10.542;2022-08-01T04:20:48;100429.00;;;17.80
64960;BMP180;51487;52.266;10.542;2022-08-01T04:23:20;100424.00;;;17.80
64960;BMP180;51487;52.266;10.542;2022-08-01T04:25:50;100433.00;;;17.90
64960;BMP180;51487;52.266;10.542;2022-08-01T04:28:17;100426.00;;;17.90
64960;BMP180;51487;52.266;10.542;2022-08-01T04:30:46;100438.00;;;18.00
64960;BMP180;51487;52.266;10.542;2022-08-01T04:33:14;100429.00;;;18.00
64960;BMP180;51487;52.266;10.542;2022-08-01T04:35:46;100431.00;;;18.10
64960;BMP180;51487;52.266;10.542;2022-08-01T04:38:17;100441.00;;;17.90
64960;BMP180;51487;52.266;10.542;2022-08-01T04:40:46;100440.00;;;18.00
64960;BMP180;51487;52.266;10.542;2022-08-01T04:43:15;100440.00;;;18.00
64960;BMP180;51487;52.266;10.542;2022-08-01T04:45:42;100446.00;;;17.90
64960;BMP180;51487;52.266;10.542;2022-08-01T04:48:09;100447.00;;;18.00
64960;BMP180;51487;52.266;10.542;2022-08-01T04:50:37;100451.00;;;18.00
64960;BMP180;51487;52.266;10.542;2022-08-01T04:53:03;100447.00;;;18.00
64960;BMP180;51487;52.266;10.542;2022-08-01T04:55:29;100458.00;;;18.00
64960;BMP180;51487;52.266;10.542;2022-08-01T04:57:56;100458.00;;;17.90
64960;BMP180;51487;52.266;10.542;2022-08-01T05:00:21;100462.00;;;18.00
64960;BMP180;51487;52.266;10.542;2022-08-01T05:02:47;100470.00;;;18.00
64960;BMP180;51487;52.266;10.542;2022-08-01T05:05:13;100458.00;;;18.00
64960;BMP180;51487;52.266;10.542;2022-08-01T05:07:38;100459.00;;;17.90
64960;BMP180;51487;52.266;10.542;2022-08-01T05:10:04;100470.00;;;17.90
64960;BMP180;51487;52.266;10.542;2022-08-01T05:12:31;100465.00;;;17.90
64960;BMP180;51487;52.266;10.542;2022-08-01T05:14:59;100467.00;;;17.80
64960;BMP180;51487;52.266;10.542;2022-08-01T05:17:25;100469.00;;;17.70
64960;BMP180;51487;52.266;10.542;2022-08-01T05:19:51;100474.00;;;17.80
64960;BMP180;51487;52.266;10.542;2022-08-01T05:22:16;100472.00;;;17.90
64960;BMP180;51487;52.266;10.542;2022-08-01T05:24:42;100477.00;;;18.00
64960;BMP180;51487;52.266;10.542;2022-08-01T05:27:07;100482.00;;;18.10
64960;BMP180;51487;52.266;10.542;2022-08-01T05:29:34;100476.00;;;18.20
64960;BMP180;51487;52.266;10.542;2022-08-01T05:32:00;100484.00;;;18.20
64960;BMP180;51487;52.266;10.542;2022-08-01T05:34:26;100479.00;;;18.00
64960;BMP180;51487;52.266;10.542;2022-08-01T05:36:52;100484.00;;;18.20
64960;BMP180;51487;52.266;10.542;2022-08-01T05:39:18;100483.00;;;18.10
64960;BMP180;51487;52.266;10.542;2022-08-01T05:41:43;100485.00;;;18.10
64960;BMP180;51487;52.266;10.542;2022-08-01T05:44:12;100480.00;;;18.30
64960;BMP180;51487;52.266;10.542;2022-08-01T05:46:37;100495.00;;;18.40
64960;BMP180;51487;52.266;10.542;2022-08-01T05:49:04;100483.00;;;18.50
64960;BMP180;51487;52.266;10.542;2022-08-01T05:51:30;100484.00;;;18.40
64960;BMP180;51487;52.266;10.542;2022-08-01T05:53:56;100491.00;;;18.30
64960;BMP180;51487;52.266;10.542;2022-08-01T05:56:23;100489.00;;;18.40
64960;BMP180;51487;52.266;10.542;2022-08-01T05:58:49;100491.00;;;18.40
64960;BMP180;51487;52.266;10.542;2022-08-01T06:01:16;100494.00;;;18.30
64960;BMP180;51487;52.266;10.542;2022-08-01T06:03:42;100488.00;;;18.30
64960;BMP180;51487;52.266;10.542;2022-08-01T06:06:07;100496.00;;;18.50
64960;BMP180;51487;52.266;10.542;2022-08-01T06:08:33;100494.00;;;18.60
64960;BMP180;51487;52.266;10.542;2022-08-01T06:10:59;100499.00;;;18.80
64960;BMP180;51487;52.266;10.542;2022-08-01T06:13:24;100504.00;;;18.90
64960;BMP180;51487;52.266;10.542;2022-08-01T06:15:50;100506.00;;;18.80
64960;BMP180;51487;52.266;10.542;2022-08-01T06:18:17;100507.00;;;18.60
64960;BMP180;51487;52.266;10.542;2022-08-01T06:20:43;100505.00;;;18.80
64960;BMP180;51487;52.266;10.542;2022-08-01T06:23:09;100504.00;;;18.70
64960;BMP180;51487;52.266;10.542;2022-08-01T06:25:34;100506.00;;;18.80
64960;BMP180;51487;52.266;10.542;2022-08-01T06:28:00;100509.00;;;18.80
64960;BMP180;51487;52.266;10.542;2022-08-01T06:30:27;100505.00;;;18.90
64960;BMP180;51487;52.266;10.542;2022-08-01T06:32:52;100514.00;;;18.90
64960;BMP180;51487;52.266;10.542;2022-08-01T06:35:21;100518.00;;;19.10
64960;BMP180;51487;52.266;10.542;2022-08-01T06:37:47;100518.00;;;19.10
64960;BMP180;51487;52.266;10.542;2022-08-01T06:40:13;100522.00;;;19.50
64960;BMP180;51487;52.266;10.542;2022-08-01T06:42:38;100516.00;;;19.50
64960;BMP180;51487;52.266;10.542;2022-08-01T06:45:05;100524.00;;;19.40
64960;BMP180;51487;52.266;10.542;2022-08-01T06:47:33;100527.00;;;19.20
64960;BMP180;51487;52.266;10.542;2022-08-01T06:49:59;100536.00;;;19.00
64960;BMP180;51487;52.266;10.542;2022-08-01T06:52:25;100539.00;;;18.80
64960;BMP180;51487;52.266;10.542;2022-08-01T06:54:51;100536.00;;;18.80
64960;BMP180;51487;52.266;10.542;2022-08-01T06:57:17;100539.00;;;18.80
64960;BMP180;51487;52.266;10.542;2022-08-01T06:59:42;100536.00;;;18.60
64960;BMP180;51487;52.266;10.542;2022-08-01T07:02:08;100536.00;;;18.70
64960;BMP180;51487;52.266;10.542;2022-08-01T07:04:34;100540.00;;;18.70
64960;BMP180;51487;52.266;10.542;2022-08-01T07:07:00;100539.00;;;18.40
64960;BMP180;51487;52.266;10.542;2022-08-01T07:09:26;100538.00;;;18.40
64960;BMP180;51487;52.266;10.542;2022-08-01T07:11:53;100547.00;;;18.30
64960;BMP180;51487;52.266;10.542;2022-08-01T07:14:20;100543.00;;;18.50
64960;BMP180;51487;52.266;10.542;2022-08-01T07:16:46;100554.00;;;18.20
64960;BMP180;51487;52.266;10.542;2022-08-01T07:19:12;100546.00;;;18.40
64960;BMP180;51487;52.266;10.542;2022-08-01T07:21:38;100552.00;;;18.20
64960;BMP180;51487;52.266;10.542;2022-08-01T07:24:05;100555.00;;;18.20
64960;BMP180;51487;52.266;10.542;2022-08-01T07:26:32;100547.00;;;18.20
64960;BMP180;51487;52.266;10.542;2022-08-01T07:28:57;100541.00;;;18.30
64960;BMP180;51487;52.266;10.542;2022-08-01T07:31:23;100546.00;;;18.40
64960;BMP180;51487;52.266;10.542;2022-08-01T07:33:49;100549.00;;;18.40
64960;BMP180;51487;52.266;10.542;2022-08-01T07:36:16;100555.00;;;18.60
64960;BMP180;51487;52.266;10.542;2022-08-01T07:38:43;100544.00;;;18.90
64960;BMP180;51487;52.266;10.542;2022-08-01T07:41:09;100550.00;;;18.90
64960;BMP180;51487;52.266;10.542;2022-08-01T07:43:34;100553.00;;;18.70
64960;BMP180;51487;52.266;10.542;2022-08-01T07:46:02;100558.00;;;19.00
64960;BMP180;51487;52.266;10.542;2022-08-01T07:48:31;100557.00;;;18.90
64960;BMP180;51487;52.266;10.542;2022-08-01T07:50:56;100559.00;;;19.10
64960;BMP180;51487;52.266;10.542;2022-08-01T07:53:22;100559.00;;;19.10
64960;BMP180;51487;52.266;10.542;2022-08-01T07:55:48;100565.00;;;19.00
64960;BMP180;51487;52.266;10.542;2022-08-01T07:58:14;100558.00;;;19.00
64960;BMP180;51487;52.266;10.542;2022-08-01T08:00:40;100563.00;;;19.30
64960;BMP180;51487;52.266;10.542;2022-08-01T08:03:06;100560.00;;;19.40
64960;BMP180;51487;52.266;10.542;2022-08-01T08:05:32;100557.00;;;19.60
64960;BMP180;51487;52.266;10.542;2022-08-01T08:08:06;100559.00;;;19.80
64960;BMP180;51487;52.266;10.542;2022-08-01T08:10:33;100564.00;;;19.60
64960;BMP180;51487;52.266;10.542;2022-08-01T08:12:59;100573.00;;;19.50
64960;BMP180;51487;52.266;10.542;2022-08-01T08:15:26;100576.00;;;19.80
64960;BMP180;51487;52.266;10.542;2022-08-01T08:17:52;100569.00;;;19.40
64960;BMP180;51487;52.266;10.542;2022-08-01T08:20:17;100568.00;;;19.80
64960;BMP180;51487;52.266;10.542;2022-08-01T08:22:43;100567.00;;;20.00
64960;BMP180;51487;52.266;10.542;2022-08-01T08:25:08;100576.00;;;20.00
64960;BMP180;51487;52.266;10.542;2022-08-01T08:27:35;100579.00;;;19.80
64960;BMP180;51487;52.266;10.542;2022-08-01T08:30:02;100577.00;;;19.40
64960;BMP180;51487;52.266;10.542;2022-08-01T08:32:32;100575.00;;;19.30
64960;BMP180;51487;52.266;10.542;2022-08-01T08:34:58;100573.00;;;19.70
64960;BMP180;51487;52.266;10.542;2022-08-01T08:37:23;100579.00;;;19.60
64960;BMP180;51487;52.266;10.542;2022-08-01T08:39:49;100573.00;;;19.70
64960;BMP180;51487;52.266;10.542;2022-08-01T08:42:14;100567.00;;;19.80
64960;BMP180;51487;52.266;10.542;2022-08-01T08:44:41;100573.00;;;20.00
64960;BMP180;51487;52.266;10.542;2022-08-01T08:47:07;100573.00;;;20.20
64960;BMP180;51487;52.266;10.542;2022-08-01T08:49:36;100570.00;;;20.10
64960;BMP180;51487;52.266;10.542;2022-08-01T08:52:04;100579.00;;;20.50
64960;BMP180;51487;52.266;10.542;2022-08-01T08:54:30;100581.00;;;20.60
64960;BMP180;51487;52.266;10.542;2022-08-01T08:56:58;100581.00;;;20.70
64960;BMP180;51487;52.266;10.542;2022-08-01T08:59:25;100588.00;;;20.40
64960;BMP180;51487;52.266;10.542;2022-08-01T09:01:52;100586.00;;;20.70
64960;BMP180;51487;52.266;10.542;2022-08-01T09:04:18;100588.00;;;20.70
64960;BMP180;51487;52.266;10.542;2022-08-01T09:06:47;100595.00;;;20.80
64960;BMP180;51487;52.266;10.542;2022-08-01T09:09:13;100604.00;;;20.60
64960;BMP180;51487;52.266;10.542;2022-08-01T09:11:38;100608.00;;;20.30
64960;BMP180;51487;52.266;10.542;2022-08-01T09:14:13;100619.00;;;20.30
64960;BMP180;51487;52.266;10.542;2022-08-01T09:17:07;100613.00;;;20.20
64960;BMP180;51487;52.266;10.542;2022-08-01T09:19:42;100618.00;;;20.20
64960;BMP180;51487;52.266;10.542;2022-08-01T09:22:16;100628.00;;;20.20
64960;BMP180;51487;52.266;10.542;2022-08-01T09:25:00;100631.00;;;19.90
64960;BMP180;51487;52.266;10.542;2022-08-01T09:27:26;100631.00;;;19.90
64960;BMP180;51487;52.266;10.542;2022-08-01T09:29:52;100638.00;;;19.70
64960;BMP180;51487;52.266;10.542;2022-08-01T09:32:19;100639.00;;;20.10
64960;BMP180;51487;52.266;10.542;2022-08-01T09:34:45;100636.00;;;20.20
64960;BMP180;51487;52.266;10.542;2022-08-01T09:37:12;100638.00;;;20.00
64960;BMP180;51487;52.266;10.542;2022-08-01T09:39:42;100641.00;;;20.00
64960;BMP180;51487;52.266;10.542;2022-08-01T09:42:20;100638.00;;;20.20
64960;BMP180;51487;52.266;10.542;2022-08-01T09:44:50;100637.00;;;19.90
64960;BMP180;51487;52.266;10.542;2022-08-01T09:47:18;100645.00;;;20.10
64960;BMP180;51487;52.266;10.542;2022-08-01T09:49:53;100648.00;;;20.20
64960;BMP180;51487;52.266;10.542;2022-08-01T09:52:22;100646.00;;;20.10
64960;BMP180;51487;52.266;10.542;2022-08-01T09:55:03;100651.00;;;20.30
64960;BMP180;51487;52.266;10.542;2022-08-01T09:57:30;100658.00;;;20.20
64960;BMP180;51487;52.266;10.542;2022-08-01T09:59:57;100660.00;;;20.50
64960;BMP180;51487;52.266;10.542;2022-08-01T10:02:34;100659.00;;;20.70
64960;BMP180;51487;52.266;10.542;2022-08-01T10:05:09;100656.00;;;20.40
64960;BMP180;51487;52.266;10.542;2022-08-01T10:07:54;100656.00;;;20.70
64960;BMP180;51487;52.266;10.542;2022-08-01T10:10:21;100661.00;;;20.70
64960;BMP180;51487;52.266;10.542;2022-08-01T10:12:47;100663.00;;;20.70
64960;BMP180;51487;52.266;10.542;2022-08-01T10:15:15;100665.00;;;20.50
64960;BMP180;51487;52.266;10.542;2022-08-01T10:17:46;100662.00;;;20.50
64960;BMP180;51487;52.266;10.542;2022-08-01T10:20:23;100665.00;;;20.50
64960;BMP180;51487;52.266;10.542;2022-08-01T10:22:53;100667.00;;;20.80
64960;BMP180;51487;52.266;10.542;2022-08-01T10:25:21;100666.00;;;20.70
64960;BMP180;51487;52.266;10.542;2022-08-01T10:27:48;100660.00;;;20.80
64960;BMP180;51487;52.266;10.542;2022-08-01T10:30:17;100666.00;;;20.80
64960;BMP180;51487;52.266;10.542;2022-08-01T10:32:46;100673.00;;;21.00
64960;BMP180;51487;52.266;10.542;2022-08-01T10:35:13;100681.00;;;20.50
64960;BMP180;51487;52.266;10.542;2022-08-01T10:37:43;100681.00;;;20.70
64960;BMP180;51487;52.266;10.542;2022-08-01T10:40:15;100681.00;;;20.90
64960;BMP180;51487;52.266;10.542;2022-08-01T10:42:41;100685.00;;;20.70
64960;BMP180;51487;52.266;10.542;2022-08-01T10:45:13;100688.00;;;20.90
64960;BMP180;51487;52.266;10.542;2022-08-01T10:47:48;100688.00;;;20.40
64960;BMP180;51487;52.266;10.542;2022-08-01T10:53:13;100682.00;;;20.70
64960;BMP180;51487;52.266;10.542;2022-08-01T10:55:57;100683.00;;;20.80
64960;BMP180;51487;52.266;10.542;2022-08-01T10:58:36;100680.00;;;20.70
64960;BMP180;51487;52.266;10.542;2022-08-01T11:01:29;100676.00;;;20.90
64960;BMP180;51487;52.266;10.542;2022-08-01T11:04:14;100669.00;;;21.10
64960;BMP180;51487;52.266;10.542;2022-08-01T11:06:54;100674.00;;;21.40
64960;BMP180;51487;52.266;10.542;2022-08-01T11:09:41;100670.00;;;21.70
64960;BMP180;51487;52.266;10.542;2022-08-01T11:17:44;100689.00;;;20.70
64960;BMP180;51487;52.266;10.542;2022-08-01T11:20:15;100694.00;;;20.70
64960;BMP180;51487;52.266;10.542;2022-08-01T11:25:22;100685.00;;;20.90
64960;BMP180;51487;52.266;10.542;2022-08-01T11:27:48;100686.00;;;20.90
64960;BMP180;51487;52.266;10.542;2022-08-01T11:32:47;100691.00;;;21.60
64960;BMP180;51487;52.266;10.542;2022-08-01T11:35:14;100690.00;;;21.50
64960;BMP180;51487;52.266;10.542;2022-08-01T11:37:40;100691.00;;;21.20
64960;BMP180;51487;52.266;10.542;2022-08-01T11:42:46;100690.00;;;21.40
64960;BMP180;51487;52.266;10.542;2022-08-01T11:45:15;100696.00;;;21.20
64960;BMP180;51487;52.266;10.542;2022-08-01T11:47:48;100700.00;;;21.20
64960;BMP180;51487;52.266;10.542;2022-08-01T11:50:36;100701.00;;;20.70
64960;BMP180;51487;52.266;10.542;2022-08-01T11:53:07;100702.00;;;21.00
64960;BMP180;51487;52.266;10.542;2022-08-01T11:55:33;100713.00;;;20.90
64960;BMP180;51487;52.266;10.542;2022-08-01T11:58:06;100711.00;;;20.80
64960;BMP180;51487;52.266;10.542;2022-08-01T12:00:33;100717.00;;;21.10
64960;BMP180;51487;52.266;10.542;2022-08-01T12:03:01;100706.00;;;20.80
64960;BMP180;51487;52.266;10.542;2022-08-01T12:05:32;100705.00;;;20.90
64960;BMP180;51487;52.266;10.542;2022-08-01T12:08:00;100699.00;;;21.10
64960;BMP180;51487;52.266;10.542;2022-08-01T12:10:28;100703.00;;;20.80
64960;BMP180;51487;52.266;10.542;2022-08-01T12:13:03;100701.00;;;21.20
64960;BMP180;51487;52.266;10.542;2022-08-01T12:15:33;100702.00;;;21.10
64960;BMP180;51487;52.266;10.542;2022-08-01T12:18:02;100689.00;;;21.40
64960;BMP180;51487;52.266;10.542;2022-08-01T12:20:33;100707.00;;;21.60
64960;BMP180;51487;52.266;10.542;2022-08-01T12:23:06;100701.00;;;21.50
64960;BMP180;51487;52.266;10.542;2022-08-01T12:25:35;100700.00;;;21.40
64960;BMP180;51487;52.266;10.542;2022-08-01T12:28:04;100693.00;;;21.30
64960;BMP180;51487;52.266;10.542;2022-08-01T12:30:32;100699.00;;;21.30
64960;BMP180;51487;52.266;10.542;2022-08-01T12:33:05;100707.00;;;21.00
64960;BMP180;51487;52.266;10.542;2022-08-01T12:35:36;100705.00;;;20.90
64960;BMP180;51487;52.266;10.542;2022-08-01T12:38:05;100700.00;;;21.10
64960;BMP180;51487;52.266;10.542;2022-08-01T12:40:40;100702.00;;;20.90
64960;BMP180;51487;52.266;10.542;2022-08-01T12:43:09;100697.00;;;21.20
64960;BMP180;51487;52.266;10.542;2022-08-01T12:45:45;100707.00;;;21.30
64960;BMP180;51487;52.266;10.542;2022-08-01T12:48:14;100700.00;;;21.70
64960;BMP180;51487;52.266;10.542;2022-08-01T12:50:48;100701.00;;;22.00
64960;BMP180;51487;52.266;10.542;2022-08-01T12:53:15;100705.00;;;21.80
64960;BMP180;51487;52.266;10.542;2022-08-01T12:55:49;100702.00;;;21.90
64960;BMP180;51487;52.266;10.542;2022-08-01T12:58:19;100706.00;;;22.20
64960;BMP180;51487;52.266;10.542;2022-08-01T13:00:48;100720.00;;;22.10
64960;BMP180;51487;52.266;10.542;2022-08-01T13:03:17;100719.00;;;22.10
64960;BMP180;51487;52.266;10.542;2022-08-01T13:05:51;100715.00;;;21.80
64960;BMP180;51487;52.266;10.542;2022-08-01T13:08:20;100705.00;;;21.50
64960;BMP180;51487;52.266;10.542;2022-08-01T13:10:47;100715.00;;;21.60
64960;BMP180;51487;52.266;10.542;2022-08-01T13:13:15;100725.00;;;21.30
64960;BMP180;51487;52.266;10.542;2022-08-01T13:15:43;100719.00;;;21.20
64960;BMP180;51487;52.266;10.542;2022-08-01T13:18:29;100713.00;;;21.20
64960;BMP180;51487;52.266;10.542;2022-08-01T13:23:40;100721.00;;;21.30
64960;BMP180;51487;52.266;10.542;2022-08-01T13:26:07;100719.00;;;21.40
64960;BMP180;51487;52.266;10.542;2022-08-01T13:28:34;100723.00;;;21.10
64960;BMP180;51487;52.266;10.542;2022-08-01T13:31:07;100720.00;;;21.40
64960;BMP180;51487;52.266;10.542;2022-08-01T13:33:45;100722.00;;;21.40
64960;BMP180;51487;52.266;10.542;2022-08-01T13:36:13;100726.00;;;21.60
64960;BMP180;51487;52.266;10.542;2022-08-01T13:38:40;100721.00;;;21.40
64960;BMP180;51487;52.266;10.542;2022-08-01T13:41:26;100727.00;;;21.50
64960;BMP180;51487;52.266;10.542;2022-08-01T13:43:52;100734.00;;;21.10
64960;BMP180;51487;52.266;10.542;2022-08-01T13:46:18;100735.00;;;21.20
64960;BMP180;51487;52.266;10.542;2022-08-01T13:48:44;100739.00;;;21.40
64960;BMP180;51487;52.266;10.542;2022-08-01T13:51:09;100737.00;;;21.20
64960;BMP180;51487;52.266;10.542;2022-08-01T13:53:35;100741.00;;;21.30
64960;BMP180;51487;52.266;10.542;2022-08-01T13:56:01;100733.00;;;21.30
64960;BMP180;51487;52.266;10.542;2022-08-01T13:58:27;100737.00;;;21.60
64960;BMP180;51487;52.266;10.542;2022-08-01T14:00:54;100723.00;;;21.90
64960;BMP180;51487;52.266;10.542;2022-08-01T14:03:20;100728.00;;;22.10
64960;BMP180;51487;52.266;10.542;2022-08-01T14:05:46;100738.00;;;22.00
64960;BMP180;51487;52.266;10.542;2022-08-01T14:08:12;100729.00;;;22.00
64960;BMP180;51487;52.266;10.542;2022-08-01T14:10:38;100741.00;;;21.80
64960;BMP180;51487;52.266;10.542;2022-08-01T14:13:04;100733.00;;;21.90
64960;BMP180;51487;52.266;10.542;2022-08-01T14:15:30;100736.00;;;21.80
64960;BMP180;51487;52.266;10.542;2022-08-01T14:17:57;100743.00;;;21.80
64960;BMP180;51487;52.266;10.542;2022-08-01T14:20:24;100742.00;;;21.50
64960;BMP180;51487;52.266;10.542;2022-08-01T14:22:49;100750.00;;;21.60
64960;BMP180;51487;52.266;10.542;2022-08-01T14:25:15;100751.00;;;21.70